Time;durP1;ratioP1;P1;durP2;ratioP2;P2;SDS_P1;SDS_P2;PMS_P1;PMS_P2;Temp;Humidity;BMP_temperature;BMP_pressure;BME280_temperature;BME280_humidity;BME280_pressure;Samples;Min_cycle;Max_cycle;Signal;HPM_P1;HPM_P2
2023/04/14 00:01:15;;;;;;;2.55;1.30;;;;;;;20.74;36.46;100880.91;5104522;27;20043;-65
2023/04/14 00:03:41;;;;;;;4.38;1.27;;;;;;;20.71;36.59;100881.28;5103692;27;20532;-65
2023/04/14 00:06:06;;;;;;;2.13;1.38;;;;;;;20.71;36.82;100881.28;5103945;27;20047;-65
2023/04/14 00:08:32;;;;;;;2.30;1.60;;;;;;;20.66;36.72;100890.78;5102336;28;20047;-65
2023/04/14 00:10:57;;;;;;;3.05;1.83;;;;;;;20.55;36.95;100897.34;5099837;27;20066;-65
2023/04/14 00:13:22;;;;;;;2.13;1.02;;;;;;;20.65;36.91;100889.13;5104081;27;20062;-65
2023/04/14 00:15:48;;;;;;;2.60;1.40;;;;;;;20.63;36.69;100894.59;5106658;27;20090;-65
2023/04/14 00:18:14;;;;;;;2.55;1.33;;;;;;;20.58;36.96;100898.78;5101432;28;20043;-65
2023/04/14 00:20:39;;;;;;;2.83;1.50;;;;;;;20.63;36.59;100899.88;5106111;28;20043;-65
2023/04/14 00:23:05;;;;;;;1.83;1.20;;;;;;;20.60;36.64;100897.59;5103794;27;20032;-66
2023/04/14 00:25:30;;;;;;;2.80;1.30;;;;;;;20.63;36.48;100901.69;5107188;28;20535;-66
2023/04/14 00:27:56;;;;;;;3.38;1.52;;;;;;;20.60;36.66;100891.47;5100226;27;20043;-66
2023/04/14 00:30:21;;;;;;;3.35;1.67;;;;;;;20.54;36.62;100889.59;5100684;27;20046;-65
2023/04/14 00:32:47;;;;;;;3.75;1.35;;;;;;;20.52;36.83;100887.13;5099224;28;20077;-65
2023/04/14 00:35:12;;;;;;;2.83;1.30;;;;;;;20.49;36.76;100890.97;5100873;28;20052;-65
2023/04/14 00:37:38;;;;;;;3.30;1.50;;;;;;;20.53;36.54;100891.41;5097210;27;20067;-65
2023/04/14 00:40:04;;;;;;;3.80;1.50;;;;;;;20.54;36.62;100897.53;5100257;28;20024;-65
2023/04/14 00:42:30;;;;;;;1.85;1.30;;;;;;;20.50;36.83;100894.44;5100444;28;20050;-65
2023/04/14 00:44:56;;;;;;;2.53;1.75;;;;;;;20.48;36.74;100893.78;5090601;28;20040;-65
2023/04/14 00:47:21;;;;;;;2.22;1.60;;;;;;;20.41;37.01;100903.44;5104555;28;20047;-66
2023/04/14 00:49:47;;;;;;;5.03;2.20;;;;;;;20.42;36.86;100900.59;5116746;27;20031;-65
2023/04/14 00:52:13;;;;;;;2.28;1.70;;;;;;;20.44;36.81;100900.41;5088022;28;20039;-65
2023/04/14 00:54:39;;;;;;;3.70;1.90;;;;;;;20.44;36.76;100903.06;5079084;28;20044;-65
2023/04/14 00:57:06;;;;;;;2.38;1.70;;;;;;;20.42;36.83;100908.53;5100552;28;20041;-65
2023/04/14 00:59:31;;;;;;;2.50;1.55;;;;;;;20.38;36.67;100904.59;5109086;28;20031;-65
2023/04/14 01:01:59;;;;;;;2.15;1.50;;;;;;;20.39;36.96;100908.88;5101613;28;20397;-65
2023/04/14 01:04:25;;;;;;;2.63;1.17;;;;;;;20.37;36.79;100912.72;5110445;27;20035;-66
2023/04/14 01:06:53;;;;;;;4.05;1.75;;;;;;;20.45;36.67;100910.00;5105096;28;20059;-66
2023/04/14 01:09:18;;;;;;;2.60;1.30;;;;;;;20.42;36.77;100927.06;5099810;27;20066;-66
2023/04/14 01:12:15;;;;;;;1.30;1.20;;;;;;;20.37;36.72;100921.47;5106531;27;20063;-65
2023/04/14 01:14:58;;;;;;;2.38;1.52;;;;;;;20.36;36.75;100932.22;5114498;27;20046;-66
2023/04/14 01:17:32;;;;;;;3.00;1.52;;;;;;;20.33;36.71;100936.06;5105187;28;20043;-66
2023/04/14 01:20:16;;;;;;;3.25;1.35;;;;;;;20.35;36.70;100941.16;5101835;27;20031;-66
2023/04/14 01:22:48;;;;;;;1.38;1.20;;;;;;;20.35;36.63;100949.09;5105932;28;20031;-66
2023/04/14 01:25:37;;;;;;;3.67;1.60;;;;;;;20.29;36.84;100947.16;5106316;27;20054;-66
2023/04/14 01:28:45;;;;;;;1.88;1.60;;;;;;;20.33;36.82;100951.09;5099000;27;20096;-65
2023/04/14 01:31:16;;;;;;;2.83;1.25;;;;;;;20.36;36.71;100953.38;5066150;28;20802;-65
2023/04/14 01:33:44;;;;;;;2.38;1.55;;;;;;;20.32;36.64;100958.22;5094197;28;20088;-66
2023/04/14 01:36:19;;;;;;;3.95;1.73;;;;;;;20.29;36.64;100957.72;5100324;27;20059;-65
2023/04/14 01:38:47;;;;;;;1.73;1.13;;;;;;;20.26;36.69;100953.63;5108294;28;20644;-65
2023/04/14 01:41:16;;;;;;;2.45;1.35;;;;;;;20.22;36.77;100953.16;5097068;27;20027;-65
2023/04/14 01:43:47;;;;;;;2.88;1.10;;;;;;;20.19;36.86;100958.81;5078594;28;20163;-65
2023/04/14 01:46:15;;;;;;;2.25;1.33;;;;;;;20.24;36.72;100953.00;5093422;28;20031;-65
2023/04/14 01:48:41;;;;;;;1.67;1.20;;;;;;;20.23;36.57;100954.00;5098681;28;20474;-65
2023/04/14 01:51:09;;;;;;;2.08;1.33;;;;;;;20.22;36.77;100962.94;5099038;28;20075;-67
2023/04/14 01:53:39;;;;;;;2.60;1.73;;;;;;;20.20;36.76;100971.03;5083477;28;20032;-66
2023/04/14 01:56:08;;;;;;;2.60;1.35;;;;;;;20.16;36.79;100969.75;5097337;27;20031;-66
2023/04/14 01:58:35;;;;;;;1.65;1.30;;;;;;;20.15;36.76;100978.69;5103260;28;20047;-65
2023/04/14 02:01:01;;;;;;;1.85;1.48;;;;;;;20.17;36.76;100978.50;5122348;27;20031;-65
2023/04/14 02:03:28;;;;;;;3.20;1.70;;;;;;;20.26;36.63;100981.88;5106631;28;20124;-65
2023/04/14 02:05:54;;;;;;;1.88;1.30;;;;;;;20.19;36.70;100987.91;5101818;27;20042;-65
2023/04/14 02:08:22;;;;;;;3.15;1.30;;;;;;;20.16;36.82;100985.63;5100962;28;20039;-65
2023/04/14 02:10:51;;;;;;;1.90;1.58;;;;;;;20.15;36.74;100983.16;5094112;28;20027;-65
2023/04/14 02:13:19;;;;;;;1.42;1.13;;;;;;;20.16;36.68;100987.44;5103851;28;20058;-65
2023/04/14 02:15:47;;;;;;;2.53;1.40;;;;;;;20.07;36.62;100977.91;5092122;28;20068;-65
2023/04/14 02:18:14;;;;;;;2.33;1.45;;;;;;;20.15;36.71;100983.16;5106314;28;20075;-65
2023/04/14 02:20:43;;;;;;;2.10;1.40;;;;;;;20.15;36.63;100981.34;5086678;27;20023;-65
2023/04/14 02:23:10;;;;;;;1.70;1.52;;;;;;;20.10;36.71;100980.19;5105542;27;20040;-65
2023/04/14 02:25:40;;;;;;;2.58;1.40;;;;;;;20.13;36.63;100982.50;5106606;28;20035;-66
2023/04/14 02:28:11;;;;;;;2.72;1.30;;;;;;;20.09;36.76;100987.31;5100432;27;20036;-65
2023/04/14 02:30:40;;;;;;;1.77;1.52;;;;;;;20.09;36.61;100978.56;5093939;28;20872;-65
2023/04/14 02:33:12;;;;;;;3.00;1.42;;;;;;;20.08;36.71;100984.84;5103448;27;20035;-66
2023/04/14 02:36:05;;;;;;;2.55;1.30;;;;;;;20.05;36.81;100988.66;5087845;28;20525;-66
2023/04/14 02:38:37;;;;;;;2.10;1.23;;;;;;;20.02;36.91;100986.38;5105236;27;20074;-65
2023/04/14 02:41:10;;;;;;;1.45;1.05;;;;;;;20.00;36.88;100987.56;5098659;27;20036;-65
2023/04/14 02:43:52;;;;;;;2.95;1.50;;;;;;;20.04;36.77;100991.50;5098972;27;20041;-66
2023/04/14 02:46:22;;;;;;;2.25;1.52;;;;;;;20.03;36.61;100981.91;5095810;27;20040;-66
2023/04/14 02:48:49;;;;;;;;;;;;;;;20.08;36.68;100980.38;5088894;28;20027;-66
2023/04/14 02:51:17;;;;;;;1.75;1.55;;;;;;;20.06;36.67;100978.91;5099170;27;20018;-66
2023/04/14 02:53:43;;;;;;;1.70;1.13;;;;;;;20.03;36.68;100984.56;5087459;28;20040;-66
2023/04/14 02:56:20;;;;;;;1.77;1.38;;;;;;;19.97;36.67;100962.31;5090351;28;20051;-66
2023/04/14 02:58:48;;;;;;;2.20;1.20;;;;;;;20.04;36.64;100988.84;5089458;28;20085;-66
2023/04/14 03:01:15;;;;;;;3.20;1.30;;;;;;;20.01;36.72;100989.22;5094385;28;20496;-64
2023/04/14 03:03:41;;;;;;;2.28;1.17;;;;;;;19.98;36.75;100987.75;5092672;28;20031;-65
2023/04/14 03:06:14;;;;;;;1.35;1.17;;;;;;;20.00;36.73;101004.25;5101728;27;20074;-65
2023/04/14 03:08:41;;;;;;;3.30;1.45;;;;;;;20.00;36.75;101006.06;5102039;27;20031;-65
2023/04/14 03:11:08;;;;;;;2.47;1.58;;;;;;;20.06;36.50;101000.88;5087457;28;20034;-65
2023/04/14 03:13:36;;;;;;;1.20;1.10;;;;;;;20.01;36.57;100997.13;5097942;27;20040;-66
2023/04/14 03:16:03;;;;;;;2.85;1.10;;;;;;;19.98;36.77;101002.78;5087786;28;20028;-65
2023/04/14 03:18:31;;;;;;;2.22;1.25;;;;;;;19.95;36.74;100988.09;5100805;27;20448;-65
2023/04/14 03:21:00;;;;;;;2.70;1.35;;;;;;;19.90;36.97;100993.91;5098129;27;20043;-64
2023/04/14 03:23:26;;;;;;;2.78;1.33;;;;;;;19.92;36.86;101001.66;5097375;27;20078;-65
2023/04/14 03:25:59;;;;;;;1.67;1.40;;;;;;;19.90;36.79;100998.34;5100515;27;20035;-65
2023/04/14 03:28:31;;;;;;;5.25;1.40;;;;;;;19.99;36.66;100996.50;5121253;27;20119;-65
2023/04/14 03:31:00;;;;;;;3.30;1.23;;;;;;;19.98;36.68;101005.44;5094663;28;20108;-66
2023/04/14 03:33:31;;;;;;;2.90;1.58;;;;;;;19.90;36.75;101006.28;5088259;28;20143;-66
2023/04/14 03:35:59;;;;;;;2.58;1.20;;;;;;;19.90;36.73;101011.56;5089966;28;20062;-66
2023/04/14 03:38:27;;;;;;;2.35;1.27;;;;;;;20.01;36.47;101007.72;5096242;28;20028;-65
2023/04/14 03:40:58;;;;;;;2.08;1.30;;;;;;;19.91;36.82;101013.22;5081320;28;20032;-67
2023/04/14 03:43:26;;;;;;;3.03;1.38;;;;;;;19.94;36.55;101012.88;5104081;27;20027;-67
2023/04/14 03:45:57;;;;;;;2.53;1.23;;;;;;;19.87;36.80;101007.47;5091285;27;20465;-66
2023/04/14 03:48:28;;;;;;;4.45;1.20;;;;;;;19.92;36.59;101006.94;5097632;27;20051;-66
2023/04/14 03:50:57;;;;;;;1.67;0.88;;;;;;;19.87;36.64;101009.28;5081255;28;20050;-66
2023/04/14 03:53:24;;;;;;;2.30;1.20;;;;;;;19.85;36.75;101008.66;5086570;27;20055;-66
2023/04/14 03:55:51;;;;;;;1.85;1.30;;;;;;;19.83;36.77;101014.09;5093423;27;20043;-66
2023/04/14 03:58:19;;;;;;;3.90;1.30;;;;;;;19.73;36.94;101002.94;5082612;28;20044;-65
2023/04/14 04:00:48;;;;;;;1.88;1.33;;;;;;;19.78;36.87;101008.53;5095381;28;20453;-66
2023/04/14 04:03:14;;;;;;;2.38;1.27;;;;;;;19.79;36.80;101012.81;5097713;28;20050;-64
2023/04/14 04:05:42;;;;;;;1.20;1.10;;;;;;;19.81;36.68;101002.06;5091867;27;20600;-66
2023/04/14 04:08:09;;;;;;;2.00;1.60;;;;;;;19.80;36.75;101003.88;5082108;28;20035;-65
2023/04/14 04:10:36;;;;;;;2.30;1.40;;;;;;;19.80;36.80;101016.28;5104485;27;20039;-66
2023/04/14 04:13:05;;;;;;;3.17;1.50;;;;;;;19.81;36.71;101017.94;5100589;28;20019;-65
2023/04/14 04:15:32;;;;;;;1.55;1.08;;;;;;;19.76;36.82;101018.47;5096933;28;20054;-66
2023/04/14 04:17:59;;;;;;;2.83;1.30;;;;;;;19.85;36.68;101025.31;5098709;27;21912;-65
2023/04/14 04:20:27;;;;;;;2.35;1.35;;;;;;;19.78;36.77;101016.47;5099876;27;20027;-66
2023/04/14 04:22:56;;;;;;;1.35;1.25;;;;;;;19.72;36.85;101013.66;5121123;27;20032;-65
2023/04/14 04:25:22;;;;;;;2.43;1.50;;;;;;;19.79;36.78;101020.75;5103069;27;20046;-66
2023/04/14 04:28:00;;;;;;;2.03;1.33;;;;;;;19.75;36.68;101023.88;5098236;28;20520;-67
2023/04/14 04:30:28;;;;;;;2.25;1.20;;;;;;;19.77;36.65;101025.38;5096857;28;20040;-66
2023/04/14 04:32:53;;;;;;;1.95;1.25;;;;;;;19.67;37.00;101021.31;5107903;27;20027;-66
2023/04/14 04:35:21;;;;;;;2.28;1.27;;;;;;;19.72;36.67;101021.59;5084808;28;20500;-67
2023/04/14 04:37:47;;;;;;;1.52;1.10;;;;;;;19.73;36.75;101029.34;5089216;28;20575;-67
2023/04/14 04:40:14;;;;;;;1.67;1.42;;;;;;;19.70;36.79;101024.41;5088667;28;20066;-65
2023/04/14 04:42:41;;;;;;;1.63;1.38;;;;;;;19.70;36.85;101036.81;5084580;28;20035;-67
2023/04/14 04:45:08;;;;;;;3.17;1.35;;;;;;;19.65;36.94;101037.34;5099088;28;20061;-66
2023/04/14 04:47:35;;;;;;;1.67;1.20;;;;;;;19.69;36.83;101035.97;5084805;28;20485;-63
2023/04/14 04:50:00;;;;;;;2.17;1.20;;;;;;;19.68;36.82;101036.97;5107269;28;20072;-64
2023/04/14 04:52:26;;;;;;;2.78;1.33;;;;;;;19.69;36.83;101037.81;5079942;28;20076;-64
2023/04/14 04:54:51;;;;;;;1.67;1.30;;;;;;;19.68;36.84;101046.72;5089115;28;20370;-65
2023/04/14 04:57:18;;;;;;;2.10;1.30;;;;;;;19.64;36.87;101053.34;5104277;28;20057;-67
2023/04/14 04:59:43;;;;;;;3.47;1.60;;;;;;;19.68;36.75;101050.19;5094561;28;20571;-66
2023/04/14 05:02:09;;;;;;;1.50;1.30;;;;;;;19.66;36.75;101056.66;5100601;28;20128;-65
2023/04/14 05:04:34;;;;;;;2.85;1.40;;;;;;;19.65;36.84;101057.66;5104455;28;20108;-65
2023/04/14 05:07:01;;;;;;;3.53;1.15;;;;;;;19.61;36.91;101057.16;5093711;28;20051;-66
2023/04/14 05:09:27;;;;;;;2.50;1.42;;;;;;;19.64;36.85;101059.47;5101481;28;20043;-65
2023/04/14 05:11:52;;;;;;;1.40;1.25;;;;;;;19.63;37.12;101057.81;5097141;28;20388;-66
2023/04/14 05:14:18;;;;;;;1.30;1.20;;;;;;;19.58;36.98;101055.72;5104096;28;20039;-67
2023/04/14 05:16:43;;;;;;;2.33;1.30;;;;;;;19.59;36.91;101059.16;5084070;28;20039;-65
2023/04/14 05:19:09;;;;;;;2.38;1.27;;;;;;;19.63;36.90;101065.75;5104511;28;20043;-66
2023/04/14 05:21:34;;;;;;;1.67;1.13;;;;;;;19.65;36.84;101063.75;5097685;28;20035;-65
2023/04/14 05:24:00;;;;;;;1.10;1.00;;;;;;;19.65;36.82;101068.22;5098598;28;20482;-65
2023/04/14 05:26:26;;;;;;;1.92;1.00;;;;;;;19.66;36.84;101061.94;5100019;28;20047;-66
2023/04/14 05:28:51;;;;;;;0.80;0.80;;;;;;;19.64;36.94;101062.09;5101526;28;20043;-66
2023/04/14 05:31:17;;;;;;;1.63;1.05;;;;;;;19.69;36.79;101061.59;5098554;28;20073;-65
2023/04/14 05:33:42;;;;;;;3.60;1.58;;;;;;;19.67;36.79;101069.69;5100636;28;20052;-66
2023/04/14 05:36:08;;;;;;;1.27;1.17;;;;;;;19.60;37.03;101066.91;5101411;28;20059;-63
2023/04/14 05:38:41;;;;;;;1.90;1.30;;;;;;;19.66;36.85;101059.28;5094674;28;20067;-64
2023/04/14 05:41:07;;;;;;;2.70;1.35;;;;;;;19.65;36.84;101063.75;5101166;28;21928;-63
2023/04/14 05:43:32;;;;;;;1.30;1.20;;;;;;;19.60;36.87;101064.28;5102096;28;20031;-65
2023/04/14 05:45:59;;;;;;;1.92;1.08;;;;;;;19.68;36.78;101067.88;5102896;28;20046;-64
2023/04/14 05:48:27;;;;;;;1.98;1.45;;;;;;;19.64;36.89;101067.41;5102439;28;20044;-64
2023/04/14 05:50:52;;;;;;;1.80;1.10;;;;;;;19.55;36.97;101069.22;5091464;28;20048;-65
2023/04/14 05:53:18;;;;;;;1.38;0.88;;;;;;;19.59;37.02;101067.09;5106480;27;20043;-65
2023/04/14 05:55:45;;;;;;;2.25;1.58;;;;;;;19.60;36.91;101072.19;5105979;27;20042;-64
2023/04/14 05:58:11;;;;;;;2.13;1.40;;;;;;;19.66;36.86;101068.03;5110001;27;20127;-64
2023/04/14 06:00:36;;;;;;;1.58;1.20;;;;;;;19.65;36.84;101070.84;5103762;28;20048;-64
2023/04/14 06:03:02;;;;;;;2.55;1.73;;;;;;;19.63;36.89;101067.56;5105941;27;20032;-64
2023/04/14 06:05:28;;;;;;;1.83;1.50;;;;;;;19.68;36.75;101067.88;5107953;27;20039;-66
2023/04/14 06:07:53;;;;;;;1.23;1.05;;;;;;;19.68;36.78;101066.03;5105340;27;20037;-66
2023/04/14 06:10:19;;;;;;;1.30;1.15;;;;;;;19.63;36.94;101064.94;5107387;28;20039;-64
2023/04/14 06:12:45;;;;;;;1.00;0.90;;;;;;;19.67;36.90;101068.84;5106794;27;20039;-64
2023/04/14 06:15:10;;;;;;;1.25;1.15;;;;;;;19.67;36.84;101067.03;5103189;27;20086;-64
2023/04/14 06:17:36;;;;;;;1.40;1.30;;;;;;;19.68;36.92;101062.56;5106336;28;20032;-65
2023/04/14 06:20:02;;;;;;;2.33;1.55;;;;;;;19.68;36.91;101044.09;5105278;27;20039;-64
2023/04/14 06:22:31;;;;;;;1.25;0.93;;;;;;;19.72;36.67;101055.94;5104831;28;20092;-64
2023/04/14 06:24:57;;;;;;;1.88;1.30;;;;;;;19.65;36.92;101047.91;5103939;28;20051;-65
2023/04/14 06:27:23;;;;;;;1.30;1.02;;;;;;;19.71;36.81;101049.00;5105232;27;20031;-65
2023/04/14 06:29:50;;;;;;;1.40;1.20;;;;;;;19.61;36.91;101038.69;5104462;27;20944;-66
2023/04/14 06:32:17;;;;;;;3.83;1.60;;;;;;;19.69;36.81;101048.38;5105044;27;20595;-65
2023/04/14 06:34:42;;;;;;;1.42;1.33;;;;;;;19.91;36.55;101051.03;5107264;27;20173;-64
2023/04/14 06:37:08;;;;;;;1.05;0.98;;;;;;;20.90;34.89;101044.00;5104260;28;20064;-65
2023/04/14 06:39:33;;;;;;;1.73;1.13;;;;;;;21.32;34.12;101051.31;5106570;27;20051;-63
2023/04/14 06:41:59;;;;;;;2.67;1.52;;;;;;;21.62;33.43;101052.09;5105325;27;20023;-68
2023/04/14 06:44:25;;;;;;;1.70;1.40;;;;;;;21.70;33.31;101061.75;5090205;27;20053;-70
2023/04/14 06:46:50;;;;;;;1.27;1.17;;;;;;;21.72;33.61;101057.09;5107523;27;20039;-70
2023/04/14 06:49:18;;;;;;;3.80;1.45;;;;;;;21.77;33.40;101056.56;5105286;27;20058;-70
2023/04/14 06:51:43;;;;;;;1.58;1.15;;;;;;;21.71;33.39;101055.47;5104708;28;20039;-70
2023/04/14 06:54:09;;;;;;;1.83;1.40;;;;;;;21.71;33.75;101056.28;5102709;27;20061;-70
2023/04/14 06:56:34;;;;;;;2.30;1.30;;;;;;;21.71;33.96;101063.41;5095744;28;20163;-70
2023/04/14 06:59:00;;;;;;;4.20;1.58;;;;;;;21.75;33.85;101055.94;5103813;27;20040;-71
2023/04/14 07:01:25;;;;;;;1.52;0.98;;;;;;;21.76;33.95;101060.22;5113177;27;20068;-71
2023/04/14 07:03:51;;;;;;;1.70;1.35;;;;;;;21.75;33.66;101053.28;5104946;27;20362;-71
2023/04/14 07:06:16;;;;;;;2.22;1.35;;;;;;;21.77;33.87;101056.56;5106493;28;20032;-71
2023/04/14 07:08:43;;;;;;;1.63;1.23;;;;;;;21.75;33.68;101046.16;5105089;28;20043;-72
2023/04/14 07:11:10;;;;;;;2.03;1.17;;;;;;;21.74;33.82;101051.63;5105978;28;20051;-71
2023/04/14 07:13:36;;;;;;;1.88;1.42;;;;;;;21.68;33.96;101054.00;5105197;27;20077;-71
2023/04/14 07:16:03;;;;;;;1.80;0.90;;;;;;;21.70;33.83;101049.34;5102919;27;20099;-72
2023/04/14 07:18:30;;;;;;;1.60;1.27;;;;;;;21.68;34.32;101050.53;5112087;27;20059;-71
2023/04/14 07:20:56;;;;;;;3.13;1.40;;;;;;;21.68;34.07;101058.47;5107998;27;20048;-70
2023/04/14 07:23:22;;;;;;;1.02;0.90;;;;;;;21.56;34.34;101054.69;5107427;27;20040;-69
2023/04/14 07:25:51;;;;;;;1.88;1.30;;;;;;;21.59;34.19;101054.31;5104737;27;20662;-70
2023/04/14 07:28:18;;;;;;;1.88;0.95;;;;;;;21.42;34.73;101051.88;5106062;28;20176;-70
2023/04/14 07:30:44;;;;;;;1.73;1.27;;;;;;;21.35;35.01;101050.94;5105666;27;20092;-70
2023/04/14 07:33:09;;;;;;;1.60;1.02;;;;;;;21.42;34.75;101051.06;5103603;27;20051;-70
2023/04/14 07:35:35;;;;;;;1.40;1.30;;;;;;;21.27;35.11;101050.22;5111171;27;20047;-70
2023/04/14 07:38:00;;;;;;;2.78;1.13;;;;;;;21.23;35.17;101055.06;5105580;28;20482;-70
2023/04/14 07:40:26;;;;;;;2.08;1.30;;;;;;;21.12;35.56;101045.72;5101466;27;20051;-70
2023/04/14 07:42:51;;;;;;;3.08;2.08;;;;;;;21.19;35.58;101048.47;5103522;28;20069;-70
2023/04/14 07:45:17;;;;;;;3.72;1.40;;;;;;;21.17;35.61;101052.28;5109946;27;20051;-70
2023/04/14 07:47:43;;;;;;;4.47;1.25;;;;;;;21.08;35.85;101056.88;5107851;27;20550;-70
2023/04/14 07:50:09;;;;;;;1.38;1.20;;;;;;;21.07;35.89;101060.53;5102456;27;20043;-70
2023/04/14 07:52:35;;;;;;;1.83;1.25;;;;;;;20.99;36.09;101058.78;5096359;27;20047;-69
2023/04/14 07:55:02;;;;;;;1.38;1.25;;;;;;;20.98;35.90;101057.13;5106189;27;20032;-70
2023/04/14 07:57:27;;;;;;;1.20;1.08;;;;;;;20.95;36.15;101059.31;5102775;28;20139;-70
2023/04/14 07:59:53;;;;;;;2.42;1.50;;;;;;;20.99;35.92;101055.31;5109869;28;20036;-70
2023/04/14 08:02:18;;;;;;;2.10;1.42;;;;;;;20.96;36.03;101051.19;5104829;27;21459;-70
2023/04/14 08:04:44;;;;;;;2.38;1.58;;;;;;;20.96;35.91;101053.84;5103705;28;20792;-70
2023/04/14 08:07:09;;;;;;;1.65;1.30;;;;;;;20.97;35.99;101058.13;5098037;28;20070;-70
2023/04/14 08:09:35;;;;;;;1.20;1.10;;;;;;;20.92;36.13;101049.09;5101456;27;20039;-71
2023/04/14 08:12:00;;;;;;;1.58;1.40;;;;;;;20.89;36.21;101058.22;5101961;27;20031;-71
2023/04/14 08:14:26;;;;;;;2.25;1.50;;;;;;;20.93;36.25;101056.03;5087356;27;20040;-71
2023/04/14 08:16:52;;;;;;;2.58;1.30;;;;;;;20.91;36.24;101052.75;5108511;27;20035;-71
2023/04/14 08:19:17;;;;;;;2.20;1.25;;;;;;;20.89;36.39;101050.28;5102012;27;21813;-70
2023/04/14 08:21:43;;;;;;;2.13;1.42;;;;;;;20.89;36.39;101047.66;5105523;28;20045;-71
2023/04/14 08:24:08;;;;;;;2.13;1.30;;;;;;;20.85;36.30;101043.72;5103479;27;20054;-71
2023/04/14 08:26:34;;;;;;;1.95;1.40;;;;;;;20.84;36.28;101046.56;5103364;28;20039;-70
2023/04/14 08:28:59;;;;;;;2.58;1.35;;;;;;;20.80;36.61;101049.53;5107530;27;20046;-70
2023/04/14 08:31:25;;;;;;;1.60;1.10;;;;;;;20.81;36.49;101047.72;5101848;28;20027;-69
2023/04/14 08:33:51;;;;;;;2.47;1.45;;;;;;;20.82;36.59;101041.41;5105055;27;20092;-69
2023/04/14 08:36:17;;;;;;;1.88;1.20;;;;;;;20.83;36.58;101042.25;5099836;27;20096;-70
2023/04/14 08:38:43;;;;;;;2.20;1.20;;;;;;;20.81;36.62;101039.78;5100378;28;20126;-72
2023/04/14 08:41:11;;;;;;;2.05;1.33;;;;;;;20.79;36.51;101039.94;5105658;28;20110;-70
2023/04/14 08:43:37;;;;;;;2.67;1.50;;;;;;;20.81;36.52;101043.22;5104544;28;20050;-70
2023/04/14 08:46:04;;;;;;;2.42;1.35;;;;;;;20.75;36.70;101046.63;5107845;27;20043;-71
2023/04/14 08:48:31;;;;;;;2.45;1.15;;;;;;;20.77;36.58;101047.25;5104281;28;20046;-72
2023/04/14 08:51:13;;;;;;;2.00;1.33;;;;;;;20.77;36.53;101043.78;5110211;28;20050;-71
2023/04/14 08:53:42;;;;;;;2.13;1.33;;;;;;;20.77;36.49;101041.97;5104392;28;20497;-71
2023/04/14 08:56:10;;;;;;;1.58;1.20;;;;;;;20.78;36.64;101045.44;5101860;28;20500;-71
2023/04/14 08:58:37;;;;;;;3.35;1.48;;;;;;;20.77;36.46;101049.06;5104094;28;20127;-71
2023/04/14 09:01:03;;;;;;;2.78;1.25;;;;;;;20.71;36.71;101042.69;5104489;28;20449;-70
2023/04/14 09:03:29;;;;;;;2.40;1.52;;;;;;;20.71;36.60;101042.69;5110218;28;20355;-71
2023/04/14 09:05:56;;;;;;;4.22;1.55;;;;;;;20.77;36.63;101044.59;5106933;28;20122;-72
2023/04/14 09:08:22;;;;;;;1.52;1.17;;;;;;;20.75;36.78;101045.78;5107793;28;20039;-71
2023/04/14 09:10:49;;;;;;;2.15;1.33;;;;;;;20.68;36.69;101039.59;5104610;28;20035;-71
2023/04/14 09:13:16;;;;;;;2.53;1.38;;;;;;;20.73;36.44;101045.97;5106356;28;20043;-71
2023/04/14 09:15:41;;;;;;;1.85;1.27;;;;;;;20.74;36.70;101047.63;5100552;28;20050;-70
2023/04/14 09:18:10;;;;;;;3.53;1.48;;;;;;;20.69;36.52;101046.53;5106255;28;20035;-71
2023/04/14 09:20:36;;;;;;;2.95;1.60;;;;;;;20.72;36.49;101043.50;5106134;28;20036;-71
2023/04/14 09:23:03;;;;;;;4.10;1.70;;;;;;;20.75;36.34;101043.97;5107137;27;20496;-71
2023/04/14 09:25:29;;;;;;;2.17;1.80;;;;;;;20.77;36.52;101047.25;5106003;27;20073;-71
2023/04/14 09:27:55;;;;;;;3.55;1.50;;;;;;;20.77;36.60;101041.13;5108341;28;20046;-70
2023/04/14 09:30:20;;;;;;;4.07;1.83;;;;;;;20.66;36.75;101036.31;5109049;27;20130;-70
2023/04/14 09:32:50;;;;;;;3.83;2.13;;;;;;;20.64;36.71;101030.34;5119750;27;20500;-71
2023/04/14 09:35:16;;;;;;;3.28;2.10;;;;;;;20.71;36.50;101037.41;5112293;27;20050;-71
2023/04/14 09:37:43;;;;;;;4.03;1.75;;;;;;;20.72;36.34;101035.56;5120391;27;20472;-71
2023/04/14 09:40:10;;;;;;;5.78;2.22;;;;;;;20.65;36.67;101040.78;5116041;27;20031;-70
2023/04/14 09:42:41;;;;;;;5.32;2.15;;;;;;;20.64;36.71;101039.09;5103936;27;20387;-71
2023/04/14 09:45:08;;;;;;;7.07;2.08;;;;;;;20.65;36.47;101034.66;5108374;27;20851;-70
2023/04/14 09:47:33;;;;;;;3.28;1.92;;;;;;;20.65;36.75;101039.94;5108381;27;20043;-70
2023/04/14 09:50:02;;;;;;;4.53;1.85;;;;;;;20.58;36.58;101018.66;5109423;27;20036;-70
2023/04/14 09:52:39;;;;;;;4.80;2.05;;;;;;;20.69;36.53;101039.41;5107119;27;20072;-70
2023/04/14 09:55:13;;;;;;;4.28;2.17;;;;;;;20.62;36.61;101038.47;5108388;27;20037;-70
2023/04/14 09:57:49;;;;;;;3.78;2.47;;;;;;;20.62;36.46;101035.81;5107219;28;20048;-70
2023/04/14 10:00:16;;;;;;;3.72;2.00;;;;;;;20.64;36.47;101039.09;5108993;27;20435;-71
2023/04/14 10:02:54;;;;;;;4.13;2.03;;;;;;;20.63;36.69;101041.94;5113062;27;20067;-71
2023/04/14 10:05:25;;;;;;;2.58;1.67;;;;;;;20.64;36.64;101040.94;5112003;27;20046;-70
2023/04/14 10:07:51;;;;;;;4.38;2.17;;;;;;;20.61;36.49;101042.13;5110433;27;20500;-70
2023/04/14 10:10:17;;;;;;;4.50;2.00;;;;;;;20.68;36.55;101029.81;5108440;28;20032;-70
2023/04/14 10:12:43;;;;;;;4.32;1.80;;;;;;;20.73;36.12;101037.22;5108795;28;20035;-70
2023/04/14 10:15:11;;;;;;;5.05;2.42;;;;;;;20.71;36.35;101033.94;5111899;27;20856;-70
2023/04/14 10:17:38;;;;;;;5.47;2.15;;;;;;;20.70;36.50;101032.28;5106793;27;20524;-70
2023/04/14 10:20:05;;;;;;;3.65;2.00;;;;;;;20.69;36.83;101039.41;5110509;28;20035;-70
2023/04/14 10:22:31;;;;;;;3.80;2.17;;;;;;;20.65;36.61;101034.66;5107574;28;20043;-69
2023/04/14 10:25:00;;;;;;;3.15;1.88;;;;;;;20.64;36.83;101033.81;5108661;27;20035;-70
2023/04/14 10:27:31;;;;;;;4.90;2.07;;;;;;;20.76;36.42;101040.31;5108206;27;20063;-70
2023/04/14 10:29:57;;;;;;;3.35;2.00;;;;;;;21.12;35.67;101035.13;5110980;27;20039;-70
2023/04/14 10:32:25;;;;;;;3.55;2.03;;;;;;;21.49;34.98;101038.69;5108070;28;20035;-70
2023/04/14 10:35:04;;;;;;;3.70;2.00;;;;;;;21.46;34.62;101020.53;5107491;28;20050;-70
2023/04/14 10:37:31;;;;;;;4.55;2.15;;;;;;;21.46;34.91;101032.94;5105758;28;20397;-70
2023/04/14 10:39:59;;;;;;;4.57;1.85;;;;;;;21.49;34.93;101035.22;5108072;27;20043;-70
2023/04/14 10:42:25;;;;;;;4.45;2.05;;;;;;;21.29;35.23;101030.50;5111139;27;20031;-71
2023/04/14 10:45:07;;;;;;;3.30;2.13;;;;;;;21.30;35.38;101031.31;5114050;27;20027;-70
2023/04/14 10:47:34;;;;;;;5.43;2.47;;;;;;;21.23;35.50;101025.91;5108070;27;20032;-70
2023/04/14 10:50:12;;;;;;;3.85;2.00;;;;;;;21.11;35.60;101022.91;5106472;28;20073;-71
2023/04/14 10:52:47;;;;;;;4.30;1.83;;;;;;;21.03;35.73;101023.00;5106279;27;20058;-71
2023/04/14 10:55:12;;;;;;;2.80;1.85;;;;;;;21.01;36.01;101022.38;5110982;27;20036;-72
2023/04/14 10:57:43;;;;;;;6.05;1.85;;;;;;;21.00;35.83;101011.94;5104578;28;20061;-69
2023/04/14 11:00:32;;;;;;;3.22;1.80;;;;;;;20.97;35.83;101007.84;5110085;28;20427;-70
2023/04/14 11:03:06;;;;;;;2.97;1.92;;;;;;;21.00;35.79;101010.09;5104544;27;20059;-71
2023/04/14 11:05:40;;;;;;;3.05;2.00;;;;;;;20.93;35.87;101001.28;5107692;27;20036;-70
2023/04/14 11:08:13;;;;;;;4.88;2.15;;;;;;;20.97;36.12;101004.38;5107861;27;20396;-71
2023/04/14 11:10:40;;;;;;;3.45;2.00;;;;;;;20.93;36.03;101005.75;5110132;27;20158;-70
2023/04/14 11:13:10;;;;;;;4.15;1.90;;;;;;;20.93;36.03;100997.81;5102374;27;20084;-70
2023/04/14 11:16:01;;;;;;;5.07;2.10;;;;;;;20.93;36.13;100992.50;5105051;27;20485;-70
2023/04/14 11:18:26;;;;;;;2.30;1.42;;;;;;;20.90;35.97;100990.22;5107735;28;20051;-69
2023/04/14 11:20:52;;;;;;;4.30;2.35;;;;;;;20.88;35.95;100992.25;5110742;27;20168;-70
2023/04/14 11:23:26;;;;;;;3.95;1.98;;;;;;;20.88;36.00;100989.59;5106708;27;20051;-70
2023/04/14 11:25:52;;;;;;;1.48;1.30;;;;;;;20.85;36.09;100988.13;5108448;28;20050;-70
2023/04/14 11:28:47;;;;;;;3.45;1.98;;;;;;;20.84;36.22;100983.84;5111997;28;20039;-70